createdAt,value
2022-11-07T00:01:22.193Z,5.52
2022-11-07T00:03:48.724Z,5.49
2022-11-07T00:06:14.828Z,5.50
2022-11-07T00:08:40.957Z,5.46
2022-11-07T00:11:07.162Z,5.47
2022-11-07T00:13:34.024Z,5.47
2022-11-07T00:16:07.515Z,5.45
2022-11-07T00:18:34.243Z,5.43
2022-11-07T00:21:04.966Z,5.36
2022-11-07T00:23:31.328Z,5.36
2022-11-07T00:26:05.789Z,5.34
2022-11-07T00:28:40.169Z,5.33
2022-11-07T00:31:07.897Z,5.34
2022-11-07T00:33:34.740Z,5.31
2022-11-07T00:36:00.985Z,5.35
2022-11-07T00:38:27.618Z,5.35
2022-11-07T00:40:58.052Z,5.37
2022-11-07T00:43:24.861Z,5.37
2022-11-07T00:45:51.247Z,5.41
2022-11-07T00:48:17.460Z,5.47
2022-11-07T00:50:44.098Z,5.50
2022-11-07T00:53:10.216Z,5.54
2022-11-07T00:55:36.360Z,5.60
2022-11-07T00:58:02.477Z,5.66
2022-11-07T01:00:28.599Z,5.72
2022-11-07T01:03:14.927Z,5.75
2022-11-07T01:05:41.149Z,5.84
2022-11-07T01:08:07.538Z,5.91
2022-11-07T01:10:33.658Z,5.91
2022-11-07T01:12:59.789Z,6.02
2022-11-07T01:15:25.926Z,6.04
2022-11-07T01:17:52.048Z,6.12
2022-11-07T01:20:18.196Z,6.15
2022-11-07T01:22:44.312Z,6.15
2022-11-07T01:25:10.472Z,6.19
2022-11-07T01:27:36.597Z,6.20
2022-11-07T01:30:02.792Z,6.24
2022-11-07T01:32:28.926Z,6.27
2022-11-07T01:34:55.056Z,6.33
2022-11-07T01:37:21.158Z,6.31
2022-11-07T01:39:47.288Z,6.30
2022-11-07T01:42:13.481Z,6.25
2022-11-07T01:44:39.540Z,6.22
2022-11-07T01:47:05.805Z,6.16
2022-11-07T01:49:38.250Z,6.11
2022-11-07T01:52:08.673Z,6.09
2022-11-07T01:54:39.268Z,6.06
2022-11-07T01:57:14.948Z,6.06
2022-11-07T01:59:41.589Z,6.03
2022-11-07T02:02:08.985Z,6.04
2022-11-07T02:04:36.405Z,6.02
2022-11-07T02:07:18.731Z,6.00
2022-11-07T02:09:45.752Z,5.99
2022-11-07T02:12:12.642Z,5.95
2022-11-07T02:14:38.796Z,5.94
2022-11-07T02:17:05.379Z,5.96
2022-11-07T02:19:43.431Z,5.94
2022-11-07T02:22:13.514Z,5.90
2022-11-07T02:24:40.485Z,5.85
2022-11-07T02:27:12.833Z,5.84
2022-11-07T02:29:42.015Z,5.81
2022-11-07T02:32:11.179Z,5.84
2022-11-07T02:34:38.002Z,5.87
2022-11-07T02:37:10.149Z,5.89
2022-11-07T02:39:36.349Z,5.91
2022-11-07T02:42:02.951Z,5.96
2022-11-07T02:44:30.485Z,6.00
2022-11-07T02:46:57.084Z,6.12
2022-11-07T02:49:23.210Z,6.19
2022-11-07T02:51:49.328Z,6.24
2022-11-07T02:54:15.474Z,6.27
2022-11-07T02:56:41.577Z,6.31
2022-11-07T02:59:07.740Z,6.35
2022-11-07T03:01:33.976Z,6.40
2022-11-07T03:04:00.194Z,6.43
2022-11-07T03:06:26.527Z,6.52
2022-11-07T03:08:52.888Z,6.55
2022-11-07T03:11:20.016Z,6.57
2022-11-07T03:13:47.827Z,6.60
2022-11-07T03:16:14.345Z,6.62
2022-11-07T03:18:40.593Z,6.64
2022-11-07T03:21:06.970Z,6.61
2022-11-07T03:23:34.634Z,6.63
2022-11-07T03:26:00.786Z,6.65
2022-11-07T03:28:26.932Z,6.65
2022-11-07T03:30:53.153Z,6.63
2022-11-07T03:33:19.376Z,6.61
2022-11-07T03:35:45.504Z,6.60
2022-11-07T03:38:11.914Z,6.60
2022-11-07T03:40:38.032Z,6.60
2022-11-07T03:43:04.164Z,6.62
2022-11-07T03:45:30.274Z,6.68
2022-11-07T03:47:56.384Z,6.72
2022-11-07T03:50:22.652Z,6.74
2022-11-07T03:52:49.245Z,6.83
2022-11-07T03:55:16.277Z,6.88
2022-11-07T03:57:42.674Z,6.94
2022-11-07T04:00:09.633Z,6.98
2022-11-07T04:02:38.889Z,7.02
2022-11-07T04:05:05.562Z,7.04
2022-11-07T04:07:31.673Z,7.11
2022-11-07T04:09:57.832Z,7.13
2022-11-07T04:12:42.605Z,7.24
2022-11-07T04:15:30.254Z,7.26
2022-11-07T04:17:56.364Z,7.29
2022-11-07T04:20:22.613Z,7.31
2022-11-07T04:22:48.719Z,7.37
2022-11-07T04:25:14.976Z,7.39
2022-11-07T04:27:44.177Z,7.42
2022-11-07T04:30:19.925Z,7.40
2022-11-07T04:32:50.392Z,7.44
2022-11-07T04:35:17.357Z,7.54
2022-11-07T04:37:43.726Z,7.53
2022-11-07T04:40:11.002Z,7.50
2022-11-07T04:42:37.372Z,7.50
2022-11-07T04:45:04.222Z,7.54
2022-11-07T04:47:30.349Z,7.60
2022-11-07T04:49:56.542Z,7.60
2022-11-07T04:52:22.699Z,7.61
2022-11-07T04:54:49.022Z,7.58
2022-11-07T04:57:15.687Z,7.61
2022-11-07T04:59:42.057Z,7.62
2022-11-07T05:02:12.708Z,7.63
2022-11-07T05:04:39.732Z,7.70
2022-11-07T05:07:06.499Z,7.69
2022-11-07T05:09:34.361Z,7.72
2022-11-07T05:12:00.959Z,7.74
2022-11-07T05:14:27.126Z,7.80
2022-11-07T05:16:54.641Z,7.74
2022-11-07T05:19:21.248Z,7.78
2022-11-07T05:21:47.581Z,7.79
2022-11-07T05:24:14.471Z,7.80
2022-11-07T05:26:40.664Z,7.84
2022-11-07T05:29:09.070Z,7.82
2022-11-07T05:31:35.190Z,7.88
2022-11-07T05:34:01.346Z,7.87
2022-11-07T05:36:27.451Z,7.92
2022-11-07T05:38:53.937Z,7.90
2022-11-07T05:41:22.104Z,7.92
2022-11-07T05:43:48.506Z,7.93
2022-11-07T05:46:14.878Z,7.91
2022-11-07T05:48:41.010Z,7.94
2022-11-07T05:51:08.880Z,8.04
2022-11-07T05:53:35.324Z,8.01
2022-11-07T05:56:01.601Z,8.03
2022-11-07T05:58:27.733Z,8.04
2022-11-07T06:00:53.833Z,7.99
2022-11-07T06:03:20.645Z,8.01
2022-11-07T06:05:47.029Z,8.00
2022-11-07T06:08:14.380Z,8.07
2022-11-07T06:10:42.026Z,8.04
2022-11-07T06:13:12.625Z,8.12
2022-11-07T06:15:39.812Z,8.08
2022-11-07T06:18:11.529Z,8.08
2022-11-07T06:20:38.013Z,8.14
2022-11-07T06:23:06.191Z,8.13
2022-11-07T06:25:33.312Z,8.20
2022-11-07T06:28:07.642Z,8.19
2022-11-07T06:30:34.365Z,8.27
2022-11-07T06:33:02.618Z,8.27
2022-11-07T06:35:29.748Z,8.27
2022-11-07T06:37:55.863Z,8.27
2022-11-07T06:40:22.024Z,8.29
2022-11-07T06:42:48.162Z,8.32
2022-11-07T06:45:14.320Z,8.36
2022-11-07T06:47:40.463Z,8.37
2022-11-07T06:50:07.111Z,8.41
2022-11-07T06:52:33.235Z,8.42
2022-11-07T06:54:59.336Z,8.48
2022-11-07T06:57:25.448Z,8.47
2022-11-07T06:59:52.149Z,8.48
2022-11-07T07:02:43.819Z,8.48
2022-11-07T07:05:04.654Z,8.49
2022-11-07T07:07:30.818Z,8.51
2022-11-07T07:09:56.921Z,8.63
2022-11-07T07:12:23.036Z,8.66
2022-11-07T07:14:49.848Z,8.69
2022-11-07T07:17:16.122Z,8.69
2022-11-07T07:19:42.257Z,8.76
2022-11-07T07:22:13.773Z,8.81
2022-11-07T07:24:40.237Z,8.83
2022-11-07T07:27:07.130Z,8.92
2022-11-07T07:29:33.238Z,8.88
2022-11-07T07:31:59.360Z,8.91
2022-11-07T07:34:25.470Z,8.93
2022-11-07T07:36:53.720Z,8.90
2022-11-07T07:39:19.841Z,8.93
2022-11-07T07:41:46.926Z,9.03
2022-11-07T07:44:19.124Z,9.05
2022-11-07T07:46:45.255Z,9.11
2022-11-07T07:49:11.409Z,9.14
2022-11-07T07:51:37.548Z,9.20
2022-11-07T07:54:03.693Z,9.30
2022-11-07T07:56:29.794Z,9.40
2022-11-07T07:58:55.924Z,9.48
2022-11-07T08:01:22.138Z,9.59
2022-11-07T08:04:05.002Z,9.66
2022-11-07T08:06:32.512Z,9.77
2022-11-07T08:08:58.666Z,9.82
2022-11-07T08:11:25.386Z,9.88
2022-11-07T08:13:51.501Z,9.97
2022-11-07T08:16:17.774Z,10.02
2022-11-07T08:18:43.889Z,10.09
2022-11-07T08:21:10.028Z,10.13
2022-11-07T08:23:36.680Z,10.14
2022-11-07T08:26:04.767Z,10.18
2022-11-07T08:28:34.749Z,10.31
2022-11-07T08:31:02.266Z,10.29
2022-11-07T08:33:28.942Z,10.30
2022-11-07T08:35:56.348Z,10.24
2022-11-07T08:38:23.043Z,10.37
2022-11-07T08:40:50.743Z,10.42
2022-11-07T08:43:18.582Z,10.50
2022-11-07T08:45:47.603Z,10.64
2022-11-07T08:48:14.834Z,10.68
2022-11-07T08:50:41.125Z,10.74
2022-11-07T08:53:07.709Z,10.80
2022-11-07T08:55:34.005Z,10.86
2022-11-07T08:58:02.198Z,10.96
2022-11-07T09:00:28.965Z,11.02
2022-11-07T09:03:30.738Z,11.07
2022-11-07T09:05:41.267Z,11.03
2022-11-07T09:08:07.385Z,11.08
2022-11-07T09:10:33.674Z,11.15
2022-11-07T09:12:59.788Z,11.32
2022-11-07T09:15:25.925Z,11.28
2022-11-07T09:17:52.277Z,11.28
2022-11-07T09:20:18.565Z,11.37
2022-11-07T09:22:44.694Z,11.53
2022-11-07T09:25:11.417Z,11.60
2022-11-07T09:27:37.885Z,11.70
2022-11-07T09:30:05.279Z,11.72
2022-11-07T09:32:44.293Z,11.70
2022-11-07T09:35:11.680Z,11.77
2022-11-07T09:37:39.255Z,11.77
2022-11-07T09:40:07.036Z,11.89
2022-11-07T09:42:59.244Z,11.90
2022-11-07T09:45:25.417Z,11.91
2022-11-07T09:47:59.488Z,12.05
2022-11-07T09:50:31.620Z,12.03
2022-11-07T09:53:03.473Z,12.13
2022-11-07T09:55:58.068Z,12.15
2022-11-07T09:58:37.881Z,12.27
2022-11-07T10:01:11.723Z,12.26
2022-11-07T10:03:43.168Z,12.41
2022-11-07T10:06:26.151Z,12.52
2022-11-07T10:09:42.562Z,12.58
2022-11-07T10:12:46.042Z,12.74
2022-11-07T10:15:27.808Z,12.76
2022-11-07T10:18:06.270Z,12.75
2022-11-07T10:20:46.370Z,12.82
2022-11-07T10:23:24.765Z,12.76
2022-11-07T10:25:59.783Z,12.70
2022-11-07T10:28:27.494Z,12.66
2022-11-07T10:30:57.680Z,12.69
2022-11-07T10:33:29.889Z,12.98
2022-11-07T10:36:05.825Z,13.12
2022-11-07T10:38:34.935Z,13.16
2022-11-07T10:41:01.664Z,13.07
2022-11-07T10:43:37.917Z,12.99
2022-11-07T10:46:11.034Z,12.89
2022-11-07T10:48:37.166Z,12.75
2022-11-07T10:51:03.359Z,12.68
2022-11-07T10:53:29.493Z,12.51
2022-11-07T10:55:56.504Z,12.42
2022-11-07T10:58:25.708Z,12.26
2022-11-07T11:01:03.799Z,12.21
2022-11-07T11:03:43.797Z,12.07
2022-11-07T11:06:12.309Z,12.02
2022-11-07T11:08:38.898Z,12.00
2022-11-07T11:11:15.015Z,12.02
2022-11-07T11:13:41.221Z,12.00
2022-11-07T11:16:25.208Z,12.11
2022-11-07T11:18:54.171Z,12.13
2022-11-07T11:21:20.841Z,12.25
2022-11-07T11:23:48.119Z,12.29
2022-11-07T11:26:36.671Z,12.31
2022-11-07T11:29:08.257Z,12.30
2022-11-07T11:31:43.273Z,12.36
2022-11-07T11:34:32.103Z,12.39
2022-11-07T11:37:06.404Z,12.44
2022-11-07T11:39:43.559Z,12.50
2022-11-07T11:42:35.336Z,12.58
2022-11-07T11:45:15.578Z,12.65
2022-11-07T11:47:47.340Z,12.70
2022-11-07T11:50:17.975Z,12.73
2022-11-07T11:52:45.413Z,12.77
2022-11-07T11:55:17.237Z,12.79
2022-11-07T11:57:54.859Z,12.82
2022-11-07T12:00:24.197Z,12.78
2022-11-07T12:03:20.654Z,12.82
2022-11-07T12:06:02.897Z,12.89
2022-11-07T12:08:59.062Z,13.00
2022-11-07T12:11:43.779Z,13.02
2022-11-07T12:14:38.406Z,13.05
2022-11-07T12:17:25.460Z,13.04
2022-11-07T12:20:10.247Z,13.06
2022-11-07T12:22:51.673Z,13.12
2022-11-07T12:25:27.639Z,13.20
2022-11-07T12:28:02.373Z,13.34
2022-11-07T12:30:54.458Z,13.44
2022-11-07T12:33:39.062Z,13.36
2022-11-07T12:36:23.450Z,13.42
2022-11-07T12:38:52.197Z,13.49
2022-11-07T12:41:30.300Z,13.57
2022-11-07T12:44:11.312Z,13.57
2022-11-07T12:46:59.951Z,13.61
2022-11-07T12:49:41.129Z,13.66
2022-11-07T12:52:38.615Z,13.77
2022-11-07T12:55:25.887Z,13.86
2022-11-07T12:57:54.734Z,14.02
2022-11-07T13:00:29.036Z,14.09
2022-11-07T13:03:30.554Z,14.14
2022-11-07T13:06:18.608Z,14.22
2022-11-07T13:09:18.949Z,14.10
2022-11-07T13:12:01.391Z,14.05
2022-11-07T13:14:33.351Z,13.95
2022-11-07T13:17:08.681Z,13.83
2022-11-07T13:19:37.292Z,13.76
2022-11-07T13:22:15.216Z,13.75
2022-11-07T13:24:52.828Z,13.72
2022-11-07T13:27:24.927Z,13.59
2022-11-07T13:29:51.780Z,13.53
2022-11-07T13:32:18.536Z,13.47
2022-11-07T13:35:00.728Z,13.43
2022-11-07T13:37:36.755Z,13.40
2022-11-07T13:40:26.007Z,13.36
2022-11-07T13:42:57.179Z,13.39
2022-11-07T13:45:31.470Z,13.39
2022-11-07T13:48:03.389Z,13.47
2022-11-07T13:50:40.995Z,13.48
2022-11-07T13:53:18.295Z,13.55
2022-11-07T13:55:50.991Z,13.61
2022-11-07T13:58:19.394Z,13.58
2022-11-07T14:00:45.629Z,13.60
2022-11-07T14:03:31.341Z,13.55
2022-11-07T14:05:57.518Z,13.43
2022-11-07T14:08:31.362Z,13.37
2022-11-07T14:10:57.710Z,13.37
2022-11-07T14:13:30.870Z,13.32
2022-11-07T14:15:59.702Z,13.34
2022-11-07T14:18:29.944Z,13.35
2022-11-07T14:20:58.551Z,13.33
2022-11-07T14:23:27.781Z,13.21
2022-11-07T14:26:04.872Z,13.08
2022-11-07T14:28:35.915Z,12.96
2022-11-07T14:31:05.150Z,12.85
2022-11-07T14:33:31.360Z,12.72
2022-11-07T14:36:05.925Z,12.68
2022-11-07T14:38:32.278Z,12.58
2022-11-07T14:41:01.976Z,12.49
2022-11-07T14:43:29.433Z,12.47
2022-11-07T14:46:13.737Z,12.35
2022-11-07T14:48:42.839Z,12.29
2022-11-07T14:51:13.379Z,12.22
2022-11-07T14:53:55.690Z,12.06
2022-11-07T14:56:28.613Z,11.93
2022-11-07T14:58:55.092Z,11.89
2022-11-07T15:01:33.272Z,11.77
2022-11-07T15:04:04.432Z,11.66
2022-11-07T15:06:33.669Z,11.54
2022-11-07T15:09:06.021Z,11.50
2022-11-07T15:11:37.659Z,11.36
2022-11-07T15:14:20.588Z,11.23
2022-11-07T15:16:49.521Z,11.16
2022-11-07T15:19:19.479Z,11.10
2022-11-07T15:22:03.461Z,11.05
2022-11-07T15:24:32.737Z,10.91
2022-11-07T15:27:22.087Z,10.93
2022-11-07T15:29:56.750Z,10.87
2022-11-07T15:32:25.648Z,10.91
2022-11-07T15:37:40.604Z,11.11
2022-11-07T15:40:16.791Z,11.21
2022-11-07T15:42:42.905Z,11.19
2022-11-07T15:45:10.129Z,11.24
2022-11-07T15:47:36.564Z,11.27
2022-11-07T15:50:03.273Z,11.35
2022-11-07T15:52:29.474Z,11.37
2022-11-07T15:54:55.598Z,11.42
2022-11-07T15:57:21.745Z,11.48
2022-11-07T15:59:47.892Z,11.61
2022-11-07T16:02:17.900Z,11.57
2022-11-07T16:04:44.234Z,11.54
2022-11-07T16:07:18.781Z,11.64
2022-11-07T16:09:45.963Z,11.64
2022-11-07T16:12:13.365Z,11.62
2022-11-07T16:14:44.442Z,11.65
2022-11-07T16:17:16.854Z,11.73
2022-11-07T20:47:02.641Z,10.49
2022-11-07T20:49:29.716Z,10.54
2022-11-07T20:51:55.906Z,10.64
2022-11-07T20:54:22.786Z,10.75
2022-11-07T20:56:48.895Z,10.75
2022-11-07T20:59:15.013Z,10.88
2022-11-07T21:01:42.462Z,10.89
2022-11-07T21:04:12.736Z,10.97
2022-11-07T21:06:38.852Z,10.98
2022-11-07T21:09:05.758Z,10.96
2022-11-07T21:11:32.285Z,11.11
2022-11-07T21:13:58.509Z,11.06
2022-11-07T21:16:25.515Z,11.08
2022-11-07T21:18:52.649Z,11.16
2022-11-07T21:21:22.245Z,11.16
2022-11-07T21:23:49.963Z,11.21
2022-11-07T21:26:22.802Z,11.24
2022-11-07T21:28:49.053Z,11.24
2022-11-07T21:31:18.773Z,11.23
2022-11-07T21:33:46.258Z,11.26
2022-11-07T21:36:15.561Z,11.35
2022-11-07T21:38:41.844Z,11.33
2022-11-07T21:41:09.422Z,11.45
2022-11-07T21:43:35.851Z,11.48
2022-11-07T21:46:18.819Z,11.48
2022-11-07T21:48:46.001Z,11.44
2022-11-07T21:51:17.058Z,11.52
2022-11-07T21:53:44.094Z,11.54
2022-11-07T21:56:33.197Z,11.51
2022-11-07T21:59:02.281Z,11.51
2022-11-07T22:01:29.558Z,11.44
2022-11-07T22:04:12.388Z,11.48
2022-11-07T22:06:44.275Z,11.35
2022-11-07T22:09:14.126Z,11.23
2022-11-07T22:11:40.350Z,11.21
2022-11-07T22:14:06.462Z,11.19
2022-11-07T22:16:32.642Z,11.11
2022-11-07T22:19:00.199Z,11.12
2022-11-07T22:21:26.399Z,11.02
2022-11-07T22:23:52.553Z,11.02
2022-11-07T22:26:24.107Z,11.04
2022-11-07T22:28:51.414Z,11.05
2022-11-07T22:31:20.788Z,11.10
2022-11-07T22:33:47.308Z,11.16
2022-11-07T22:36:13.610Z,11.15
2022-11-07T22:38:40.247Z,11.17
2022-11-07T22:41:08.754Z,11.15
2022-11-07T22:43:35.407Z,11.16
2022-11-07T22:46:10.618Z,11.18
2022-11-07T22:48:37.557Z,11.19
2022-11-07T22:51:08.789Z,11.18
2022-11-07T22:53:35.312Z,11.26
2022-11-07T22:56:28.330Z,11.22
2022-11-07T22:58:54.760Z,11.22
2022-11-07T23:01:27.260Z,11.16
2022-11-07T23:03:54.458Z,11.09
2022-11-07T23:06:21.419Z,11.02
2022-11-07T23:08:48.424Z,10.97
2022-11-07T23:14:05.633Z,10.87
2022-11-07T23:16:37.844Z,10.81
2022-11-07T23:19:06.799Z,10.68
2022-11-07T23:21:33.061Z,10.61
2022-11-07T23:24:00.697Z,10.55
2022-11-07T23:26:33.813Z,10.43
2022-11-07T23:29:15.599Z,10.36
2022-11-07T23:31:44.162Z,10.36
2022-11-07T23:34:10.848Z,10.24
2022-11-07T23:36:37.170Z,10.34
2022-11-07T23:39:05.184Z,10.23
2022-11-07T23:41:31.636Z,10.23
2022-11-07T23:43:58.949Z,10.21
2022-11-07T23:46:43.846Z,10.16
2022-11-07T23:49:28.888Z,10.11
2022-11-07T23:51:55.626Z,10.06
2022-11-07T23:54:40.469Z,10.01
2022-11-07T23:57:06.610Z,10.01
2022-11-07T23:59:51.194Z,9.96
